sensor_id;sensor_type;location;lat;lon;timestamp;temperature;humidity
42973;DHT22;28610;51.214;6.962;2022-08-11T00:02:44;21.70;43.20
42973;DHT22;28610;51.214;6.962;2022-08-11T00:05:30;21.70;43.30
42973;DHT22;28610;51.214;6.962;2022-08-11T00:08:21;21.60;43.50
42973;DHT22;28610;51.214;6.962;2022-08-11T00:11:08;21.60;43.80
42973;DHT22;28610;51.214;6.962;2022-08-11T00:13:55;21.50;44.00
42973;DHT22;28610;51.214;6.962;2022-08-11T00:16:44;21.50;44.10
42973;DHT22;28610;51.214;6.962;2022-08-11T00:19:39;21.50;44.10
42973;DHT22;28610;51.214;6.962;2022-08-11T00:22:26;21.40;44.30
42973;DHT22;28610;51.214;6.962;2022-08-11T00:25:15;21.40;44.40
42973;DHT22;28610;51.214;6.962;2022-08-11T00:28:00;21.30;44.60
42973;DHT22;28610;51.214;6.962;2022-08-11T00:30:46;21.20;44.80
42973;DHT22;28610;51.214;6.962;2022-08-11T00:33:37;21.20;45.10
42973;DHT22;28610;51.214;6.962;2022-08-11T00:36:27;21.20;45.10
42973;DHT22;28610;51.214;6.962;2022-08-11T00:39:15;21.10;45.20
42973;DHT22;28610;51.214;6.962;2022-08-11T00:42:12;21.10;45.10
42973;DHT22;28610;51.214;6.962;2022-08-11T00:45:08;21.10;45.40
42973;DHT22;28610;51.214;6.962;2022-08-11T00:48:01;21.10;45.10
42973;DHT22;28610;51.214;6.962;2022-08-11T00:50:59;21.00;45.30
42973;DHT22;28610;51.214;6.962;2022-08-11T00:53:51;21.00;45.50
42973;DHT22;28610;51.214;6.962;2022-08-11T00:57:04;20.90;45.50
42973;DHT22;28610;51.214;6.962;2022-08-11T01:00:05;20.90;45.70
42973;DHT22;28610;51.214;6.962;2022-08-11T01:03:15;20.90;45.50
42973;DHT22;28610;51.214;6.962;2022-08-11T01:06:27;20.90;45.50
42973;DHT22;28610;51.214;6.962;2022-08-11T01:09:40;20.80;45.60
42973;DHT22;28610;51.214;6.962;2022-08-11T01:12:44;20.90;44.70
42973;DHT22;28610;51.214;6.962;2022-08-11T01:15:58;20.90;44.70
42973;DHT22;28610;51.214;6.962;2022-08-11T01:22:25;20.80;45.00
42973;DHT22;28610;51.214;6.962;2022-08-11T01:29:09;20.80;44.90
42973;DHT22;28610;51.214;6.962;2022-08-11T01:32:34;20.70;44.90
42973;DHT22;28610;51.214;6.962;2022-08-11T01:42:20;20.60;45.90
42973;DHT22;28610;51.214;6.962;2022-08-11T01:45:36;20.60;45.70
42973;DHT22;28610;51.214;6.962;2022-08-11T01:48:34;20.60;45.10
42973;DHT22;28610;51.214;6.962;2022-08-11T01:51:36;20.60;44.40
42973;DHT22;28610;51.214;6.962;2022-08-11T01:54:32;20.60;44.20
42973;DHT22;28610;51.214;6.962;2022-08-11T01:57:30;20.70;44.00
42973;DHT22;28610;51.214;6.962;2022-08-11T02:00:20;20.60;43.50
42973;DHT22;28610;51.214;6.962;2022-08-11T02:03:13;20.70;43.70
42973;DHT22;28610;51.214;6.962;2022-08-11T02:06:03;20.70;43.80
42973;DHT22;28610;51.214;6.962;2022-08-11T02:09:23;20.60;43.50
42973;DHT22;28610;51.214;6.962;2022-08-11T02:12:15;20.60;43.90
42973;DHT22;28610;51.214;6.962;2022-08-11T02:15:10;20.60;43.80
42973;DHT22;28610;51.214;6.962;2022-08-11T02:18:03;20.60;43.80
42973;DHT22;28610;51.214;6.962;2022-08-11T02:20:53;20.60;43.20
42973;DHT22;28610;51.214;6.962;2022-08-11T02:24:00;20.60;43.70
42973;DHT22;28610;51.214;6.962;2022-08-11T02:26:56;20.60;43.90
42973;DHT22;28610;51.214;6.962;2022-08-11T02:29:51;20.50;44.40
42973;DHT22;28610;51.214;6.962;2022-08-11T02:32:46;20.50;43.30
42973;DHT22;28610;51.214;6.962;2022-08-11T02:35:58;20.60;43.60
42973;DHT22;28610;51.214;6.962;2022-08-11T02:38:50;20.50;43.50
42973;DHT22;28610;51.214;6.962;2022-08-11T02:41:44;20.40;44.00
42973;DHT22;28610;51.214;6.962;2022-08-11T02:45:10;20.40;43.70
42973;DHT22;28610;51.214;6.962;2022-08-11T02:48:01;20.40;43.90
42973;DHT22;28610;51.214;6.962;2022-08-11T02:51:13;20.40;43.40
42973;DHT22;28610;51.214;6.962;2022-08-11T02:54:07;20.60;42.80
42973;DHT22;28610;51.214;6.962;2022-08-11T02:56:57;20.60;42.30
42973;DHT22;28610;51.214;6.962;2022-08-11T02:59:49;20.60;42.20
42973;DHT22;28610;51.214;6.962;2022-08-11T03:02:50;20.70;41.90
42973;DHT22;28610;51.214;6.962;2022-08-11T03:05:51;20.70;41.90
42973;DHT22;28610;51.214;6.962;2022-08-11T03:08:45;20.60;42.50
42973;DHT22;28610;51.214;6.962;2022-08-11T03:11:49;20.50;43.30
42973;DHT22;28610;51.214;6.962;2022-08-11T03:14:58;20.50;43.60
42973;DHT22;28610;51.214;6.962;2022-08-11T03:18:17;20.30;44.00
42973;DHT22;28610;51.214;6.962;2022-08-11T03:21:11;20.30;44.20
42973;DHT22;28610;51.214;6.962;2022-08-11T03:24:06;20.10;45.10
42973;DHT22;28610;51.214;6.962;2022-08-11T03:27:03;20.20;44.70
42973;DHT22;28610;51.214;6.962;2022-08-11T03:30:03;20.20;44.90
42973;DHT22;28610;51.214;6.962;2022-08-11T03:33:01;20.20;44.90
42973;DHT22;28610;51.214;6.962;2022-08-11T03:36:19;20.20;44.90
42973;DHT22;28610;51.214;6.962;2022-08-11T03:39:11;20.10;45.00
42973;DHT22;28610;51.214;6.962;2022-08-11T03:42:09;20.10;45.20
42973;DHT22;28610;51.214;6.962;2022-08-11T03:45:04;20.10;45.10
42973;DHT22;28610;51.214;6.962;2022-08-11T03:48:01;20.10;44.80
42973;DHT22;28610;51.214;6.962;2022-08-11T03:50:57;20.20;44.80
42973;DHT22;28610;51.214;6.962;2022-08-11T03:54:05;20.30;44.40
42973;DHT22;28610;51.214;6.962;2022-08-11T03:57:17;20.10;45.20
42973;DHT22;28610;51.214;6.962;2022-08-11T04:03:53;20.10;45.30
42973;DHT22;28610;51.214;6.962;2022-08-11T04:07:06;20.10;45.30
42973;DHT22;28610;51.214;6.962;2022-08-11T04:10:31;20.00;45.10
42973;DHT22;28610;51.214;6.962;2022-08-11T04:18:02;19.80;45.80
42973;DHT22;28610;51.214;6.962;2022-08-11T04:21:04;19.80;46.40
42973;DHT22;28610;51.214;6.962;2022-08-11T04:24:18;19.70;46.80
42973;DHT22;28610;51.214;6.962;2022-08-11T04:27:42;19.70;46.90
42973;DHT22;28610;51.214;6.962;2022-08-11T04:30:45;19.80;46.10
42973;DHT22;28610;51.214;6.962;2022-08-11T04:33:51;19.80;46.50
42973;DHT22;28610;51.214;6.962;2022-08-11T04:36:58;19.70;46.70
42973;DHT22;28610;51.214;6.962;2022-08-11T04:44:18;19.60;47.80
42973;DHT22;28610;51.214;6.962;2022-08-11T04:47:26;19.60;48.20
42973;DHT22;28610;51.214;6.962;2022-08-11T04:50:58;19.60;48.20
42973;DHT22;28610;51.214;6.962;2022-08-11T04:54:04;19.70;48.00
42973;DHT22;28610;51.214;6.962;2022-08-11T04:57:16;19.70;47.50
42973;DHT22;28610;51.214;6.962;2022-08-11T05:00:29;19.80;47.20
42973;DHT22;28610;51.214;6.962;2022-08-11T05:03:45;19.90;47.30
42973;DHT22;28610;51.214;6.962;2022-08-11T05:07:07;21.20;46.80
42973;DHT22;28610;51.214;6.962;2022-08-11T05:10:06;22.30;44.30
42973;DHT22;28610;51.214;6.962;2022-08-11T05:12:55;22.90;41.70
42973;DHT22;28610;51.214;6.962;2022-08-11T05:16:08;23.20;41.20
42973;DHT22;28610;51.214;6.962;2022-08-11T05:19:15;23.80;40.00
42973;DHT22;28610;51.214;6.962;2022-08-11T05:22:19;24.10;38.80
42973;DHT22;28610;51.214;6.962;2022-08-11T05:25:28;24.50;38.10
42973;DHT22;28610;51.214;6.962;2022-08-11T05:28:35;24.90;36.90
42973;DHT22;28610;51.214;6.962;2022-08-11T05:31:42;25.10;36.80
42973;DHT22;28610;51.214;6.962;2022-08-11T05:34:51;25.60;36.90
42973;DHT22;28610;51.214;6.962;2022-08-11T05:37:41;25.40;36.10
42973;DHT22;28610;51.214;6.962;2022-08-11T05:40:50;25.70;35.40
42973;DHT22;28610;51.214;6.962;2022-08-11T05:43:54;26.10;34.90
42973;DHT22;28610;51.214;6.962;2022-08-11T05:47:01;26.70;32.70
42973;DHT22;28610;51.214;6.962;2022-08-11T05:50:08;27.40;34.30
42973;DHT22;28610;51.214;6.962;2022-08-11T05:53:12;27.80;31.80
42973;DHT22;28610;51.214;6.962;2022-08-11T05:56:16;27.30;30.60
42973;DHT22;28610;51.214;6.962;2022-08-11T05:59:03;26.50;33.30
42973;DHT22;28610;51.214;6.962;2022-08-11T06:01:49;25.90;33.20
42973;DHT22;28610;51.214;6.962;2022-08-11T06:04:36;25.10;36.10
42973;DHT22;28610;51.214;6.962;2022-08-11T06:07:26;24.50;37.70
42973;DHT22;28610;51.214;6.962;2022-08-11T06:10:13;24.30;39.20
42973;DHT22;28610;51.214;6.962;2022-08-11T06:12:59;24.20;39.90
42973;DHT22;28610;51.214;6.962;2022-08-11T06:15:46;24.10;40.70
42973;DHT22;28610;51.214;6.962;2022-08-11T06:18:32;23.80;39.00
42973;DHT22;28610;51.214;6.962;2022-08-11T06:21:21;23.80;41.70
42973;DHT22;28610;51.214;6.962;2022-08-11T06:24:11;23.80;43.50
42973;DHT22;28610;51.214;6.962;2022-08-11T06:26:57;23.70;40.90
42973;DHT22;28610;51.214;6.962;2022-08-11T06:29:46;23.80;41.00
42973;DHT22;28610;51.214;6.962;2022-08-11T06:32:35;23.90;40.70
42973;DHT22;28610;51.214;6.962;2022-08-11T06:35:22;23.90;39.90
42973;DHT22;28610;51.214;6.962;2022-08-11T06:38:13;23.90;40.40
42973;DHT22;28610;51.214;6.962;2022-08-11T06:41:11;23.90;39.60
42973;DHT22;28610;51.214;6.962;2022-08-11T06:44:21;23.90;40.60
42973;DHT22;28610;51.214;6.962;2022-08-11T06:47:10;24.00;39.20
42973;DHT22;28610;51.214;6.962;2022-08-11T06:49:57;24.10;37.60
42973;DHT22;28610;51.214;6.962;2022-08-11T06:53:03;24.20;38.40
42973;DHT22;28610;51.214;6.962;2022-08-11T06:55:51;24.30;38.50
42973;DHT22;28610;51.214;6.962;2022-08-11T06:59:00;24.40;38.50
42973;DHT22;28610;51.214;6.962;2022-08-11T07:02:06;24.60;37.60
42973;DHT22;28610;51.214;6.962;2022-08-11T07:04:58;25.80;35.20
42973;DHT22;28610;51.214;6.962;2022-08-11T07:11:59;29.40;29.30
42973;DHT22;28610;51.214;6.962;2022-08-11T07:15:05;30.80;27.80
42973;DHT22;28610;51.214;6.962;2022-08-11T07:18:15;31.60;25.90
42973;DHT22;28610;51.214;6.962;2022-08-11T07:21:22;32.50;24.60
42973;DHT22;28610;51.214;6.962;2022-08-11T07:24:29;33.00;23.90
42973;DHT22;28610;51.214;6.962;2022-08-11T07:27:41;33.70;23.00
42973;DHT22;28610;51.214;6.962;2022-08-11T07:30:45;33.70;22.70
42973;DHT22;28610;51.214;6.962;2022-08-11T07:33:39;33.90;22.40
42973;DHT22;28610;51.214;6.962;2022-08-11T07:36:27;34.10;22.10
42973;DHT22;28610;51.214;6.962;2022-08-11T07:39:18;34.00;21.00
42973;DHT22;28610;51.214;6.962;2022-08-11T07:42:06;34.10;21.40
42973;DHT22;28610;51.214;6.962;2022-08-11T07:44:54;34.80;21.40
42973;DHT22;28610;51.214;6.962;2022-08-11T07:47:59;34.80;20.20
42973;DHT22;28610;51.214;6.962;2022-08-11T07:51:03;34.70;20.80
42973;DHT22;28610;51.214;6.962;2022-08-11T07:54:06;35.40;19.90
42973;DHT22;28610;51.214;6.962;2022-08-11T07:56:53;34.80;19.00
42973;DHT22;28610;51.214;6.962;2022-08-11T07:59:39;35.30;18.80
42973;DHT22;28610;51.214;6.962;2022-08-11T08:02:44;35.40;18.60
42973;DHT22;28610;51.214;6.962;2022-08-11T08:05:49;35.10;18.20
42973;DHT22;28610;51.214;6.962;2022-08-11T08:08:54;35.70;18.10
42973;DHT22;28610;51.214;6.962;2022-08-11T08:11:59;35.50;18.00
42973;DHT22;28610;51.214;6.962;2022-08-11T08:15:06;36.10;18.00
42973;DHT22;28610;51.214;6.962;2022-08-11T08:18:11;36.00;18.00
42973;DHT22;28610;51.214;6.962;2022-08-11T08:20:58;35.30;18.50
42973;DHT22;28610;51.214;6.962;2022-08-11T08:23:54;34.40;19.80
42973;DHT22;28610;51.214;6.962;2022-08-11T08:26:42;33.40;20.20
42973;DHT22;28610;51.214;6.962;2022-08-11T08:29:43;32.60;20.60
42973;DHT22;28610;51.214;6.962;2022-08-11T08:32:46;31.90;21.80
42973;DHT22;28610;51.214;6.962;2022-08-11T08:35:34;31.80;22.20
42973;DHT22;28610;51.214;6.962;2022-08-11T08:38:20;31.70;22.20
42973;DHT22;28610;51.214;6.962;2022-08-11T08:41:07;31.50;22.40
42973;DHT22;28610;51.214;6.962;2022-08-11T08:43:54;31.20;23.40
42973;DHT22;28610;51.214;6.962;2022-08-11T08:46:42;30.80;23.50
42973;DHT22;28610;51.214;6.962;2022-08-11T08:49:33;30.80;23.10
42973;DHT22;28610;51.214;6.962;2022-08-11T08:52:22;30.90;23.10
42973;DHT22;28610;51.214;6.962;2022-08-11T08:55:14;31.40;22.80
42973;DHT22;28610;51.214;6.962;2022-08-11T08:58:01;31.00;23.10
42973;DHT22;28610;51.214;6.962;2022-08-11T09:00:49;30.70;23.60
42973;DHT22;28610;51.214;6.962;2022-08-11T09:03:36;30.50;24.20
42973;DHT22;28610;51.214;6.962;2022-08-11T09:06:21;30.40;23.90
42973;DHT22;28610;51.214;6.962;2022-08-11T09:09:09;30.20;24.10
42973;DHT22;28610;51.214;6.962;2022-08-11T09:11:56;30.90;23.90
42973;DHT22;28610;51.214;6.962;2022-08-11T09:14:44;32.00;22.10
42973;DHT22;28610;51.214;6.962;2022-08-11T09:17:47;32.40;21.90
42973;DHT22;28610;51.214;6.962;2022-08-11T09:20:34;31.80;22.60
42973;DHT22;28610;51.214;6.962;2022-08-11T09:23:20;31.60;22.80
42973;DHT22;28610;51.214;6.962;2022-08-11T09:26:25;31.60;22.50
42973;DHT22;28610;51.214;6.962;2022-08-11T09:29:31;31.50;22.60
42973;DHT22;28610;51.214;6.962;2022-08-11T09:32:19;31.10;22.40
42973;DHT22;28610;51.214;6.962;2022-08-11T09:35:06;32.30;22.00
42973;DHT22;28610;51.214;6.962;2022-08-11T09:37:52;33.90;19.40
42973;DHT22;28610;51.214;6.962;2022-08-11T09:40:56;35.30;17.80
42973;DHT22;28610;51.214;6.962;2022-08-11T09:43:45;36.10;17.50
42973;DHT22;28610;51.214;6.962;2022-08-11T09:46:50;36.40;16.80
42973;DHT22;28610;51.214;6.962;2022-08-11T09:49:36;36.30;16.90
42973;DHT22;28610;51.214;6.962;2022-08-11T09:52:22;37.40;16.30
42973;DHT22;28610;51.214;6.962;2022-08-11T09:55:08;36.80;16.30
42973;DHT22;28610;51.214;6.962;2022-08-11T09:57:55;37.00;16.40
42973;DHT22;28610;51.214;6.962;2022-08-11T10:01:01;37.20;16.20
42973;DHT22;28610;51.214;6.962;2022-08-11T10:03:47;37.90;15.60
42973;DHT22;28610;51.214;6.962;2022-08-11T10:06:35;38.70;14.90
42973;DHT22;28610;51.214;6.962;2022-08-11T10:09:41;38.90;14.80
42973;DHT22;28610;51.214;6.962;2022-08-11T10:12:32;38.50;14.70
42973;DHT22;28610;51.214;6.962;2022-08-11T10:15:20;39.00;14.60
42973;DHT22;28610;51.214;6.962;2022-08-11T10:18:27;38.80;14.10
42973;DHT22;28610;51.214;6.962;2022-08-11T10:21:29;38.70;14.70
42973;DHT22;28610;51.214;6.962;2022-08-11T10:24:17;39.00;14.20
42973;DHT22;28610;51.214;6.962;2022-08-11T10:27:21;39.00;14.20
42973;DHT22;28610;51.214;6.962;2022-08-11T10:30:07;37.60;13.40
42973;DHT22;28610;51.214;6.962;2022-08-11T10:33:20;38.50;15.00
42973;DHT22;28610;51.214;6.962;2022-08-11T10:36:24;38.80;14.20
42973;DHT22;28610;51.214;6.962;2022-08-11T10:39:13;39.20;13.80
42973;DHT22;28610;51.214;6.962;2022-08-11T10:42:00;38.70;13.40
42973;DHT22;28610;51.214;6.962;2022-08-11T10:45:06;36.90;15.80
42973;DHT22;28610;51.214;6.962;2022-08-11T10:48:13;34.40;17.70
42973;DHT22;28610;51.214;6.962;2022-08-11T10:51:00;33.40;18.80
42973;DHT22;28610;51.214;6.962;2022-08-11T10:53:58;33.10;19.00
42973;DHT22;28610;51.214;6.962;2022-08-11T10:57:02;33.10;19.10
42973;DHT22;28610;51.214;6.962;2022-08-11T11:00:08;33.50;19.30
42973;DHT22;28610;51.214;6.962;2022-08-11T11:02:58;33.40;19.00
42973;DHT22;28610;51.214;6.962;2022-08-11T11:05:45;33.50;19.00
42973;DHT22;28610;51.214;6.962;2022-08-11T11:08:32;33.60;19.70
42973;DHT22;28610;51.214;6.962;2022-08-11T11:11:44;33.10;19.00
42973;DHT22;28610;51.214;6.962;2022-08-11T11:14:50;32.90;19.80
42973;DHT22;28610;51.214;6.962;2022-08-11T11:17:58;32.70;19.80
42973;DHT22;28610;51.214;6.962;2022-08-11T11:20:52;32.50;19.50
42973;DHT22;28610;51.214;6.962;2022-08-11T11:23:43;33.00;20.40
42973;DHT22;28610;51.214;6.962;2022-08-11T11:26:38;33.10;19.90
42973;DHT22;28610;51.214;6.962;2022-08-11T11:29:33;32.50;19.60
42973;DHT22;28610;51.214;6.962;2022-08-11T11:32:28;32.20;20.00
42973;DHT22;28610;51.214;6.962;2022-08-11T11:35:28;32.60;19.80
42973;DHT22;28610;51.214;6.962;2022-08-11T11:38:16;32.20;20.00
42973;DHT22;28610;51.214;6.962;2022-08-11T11:41:03;32.30;20.40
42973;DHT22;28610;51.214;6.962;2022-08-11T11:44:07;32.60;20.60
42973;DHT22;28610;51.214;6.962;2022-08-11T11:46:53;32.70;20.10
42973;DHT22;28610;51.214;6.962;2022-08-11T11:49:41;33.20;19.80
42973;DHT22;28610;51.214;6.962;2022-08-11T11:52:27;32.80;19.90
42973;DHT22;28610;51.214;6.962;2022-08-11T11:55:13;32.80;19.80
42973;DHT22;28610;51.214;6.962;2022-08-11T11:58:01;33.00;20.30
42973;DHT22;28610;51.214;6.962;2022-08-11T12:01:05;32.90;19.60
42973;DHT22;28610;51.214;6.962;2022-08-11T12:04:04;32.90;20.10
42973;DHT22;28610;51.214;6.962;2022-08-11T12:06:50;32.70;19.60
42973;DHT22;28610;51.214;6.962;2022-08-11T12:09:57;32.50;19.80
42973;DHT22;28610;51.214;6.962;2022-08-11T12:12:43;32.60;19.80
42973;DHT22;28610;51.214;6.962;2022-08-11T12:15:48;32.60;19.90
42973;DHT22;28610;51.214;6.962;2022-08-11T12:18:35;32.10;20.00
42973;DHT22;28610;51.214;6.962;2022-08-11T12:21:21;32.50;20.80
42973;DHT22;28610;51.214;6.962;2022-08-11T12:24:07;32.90;20.10
42973;DHT22;28610;51.214;6.962;2022-08-11T12:27:12;32.70;19.60
42973;DHT22;28610;51.214;6.962;2022-08-11T12:30:07;32.60;19.70
42973;DHT22;28610;51.214;6.962;2022-08-11T12:32:54;32.70;20.20
42973;DHT22;28610;51.214;6.962;2022-08-11T12:35:41;32.70;19.90
42973;DHT22;28610;51.214;6.962;2022-08-11T12:38:27;32.70;19.90
42973;DHT22;28610;51.214;6.962;2022-08-11T12:41:13;32.50;19.50
42973;DHT22;28610;51.214;6.962;2022-08-11T12:44:17;32.30;19.70
42973;DHT22;28610;51.214;6.962;2022-08-11T12:47:20;32.00;19.90
42973;DHT22;28610;51.214;6.962;2022-08-11T12:50:08;32.50;19.50
42973;DHT22;28610;51.214;6.962;2022-08-11T12:53:12;32.70;20.60
42973;DHT22;28610;51.214;6.962;2022-08-11T12:56:03;32.80;19.70
42973;DHT22;28610;51.214;6.962;2022-08-11T12:59:07;32.30;19.50
42973;DHT22;28610;51.214;6.962;2022-08-11T13:02:15;32.30;19.10
42973;DHT22;28610;51.214;6.962;2022-08-11T13:05:20;32.00;19.80
42973;DHT22;28610;51.214;6.962;2022-08-11T13:08:06;32.40;20.50
42973;DHT22;28610;51.214;6.962;2022-08-11T13:10:54;32.70;19.90
42973;DHT22;28610;51.214;6.962;2022-08-11T13:13:57;32.70;19.30
42973;DHT22;28610;51.214;6.962;2022-08-11T13:16:44;32.70;19.70
42973;DHT22;28610;51.214;6.962;2022-08-11T13:19:44;32.60;19.60
42973;DHT22;28610;51.214;6.962;2022-08-11T13:22:33;32.90;19.60
42973;DHT22;28610;51.214;6.962;2022-08-11T13:25:22;32.70;18.50
42973;DHT22;28610;51.214;6.962;2022-08-11T13:28:07;32.50;18.80
42973;DHT22;28610;51.214;6.962;2022-08-11T13:30:55;32.40;19.30
42973;DHT22;28610;51.214;6.962;2022-08-11T13:33:56;32.60;19.00
42973;DHT22;28610;51.214;6.962;2022-08-11T13:36:41;32.90;18.80
42973;DHT22;28610;51.214;6.962;2022-08-11T13:39:30;32.60;19.00
42973;DHT22;28610;51.214;6.962;2022-08-11T13:42:18;32.80;19.40
42973;DHT22;28610;51.214;6.962;2022-08-11T13:45:06;32.30;19.00
42973;DHT22;28610;51.214;6.962;2022-08-11T13:47:55;32.60;19.30
42973;DHT22;28610;51.214;6.962;2022-08-11T13:50:41;32.90;19.50
42973;DHT22;28610;51.214;6.962;2022-08-11T13:53:46;32.40;18.90
42973;DHT22;28610;51.214;6.962;2022-08-11T13:56:35;32.70;19.30
42973;DHT22;28610;51.214;6.962;2022-08-11T13:59:23;32.60;19.70
42973;DHT22;28610;51.214;6.962;2022-08-11T14:02:13;32.30;20.00
42973;DHT22;28610;51.214;6.962;2022-08-11T14:05:02;32.30;20.50
42973;DHT22;28610;51.214;6.962;2022-08-11T14:07:51;32.20;20.60
42973;DHT22;28610;51.214;6.962;2022-08-11T14:10:38;32.30;20.50
42973;DHT22;28610;51.214;6.962;2022-08-11T14:13:25;32.50;20.40
42973;DHT22;28610;51.214;6.962;2022-08-11T14:16:26;32.60;20.20
42973;DHT22;28610;51.214;6.962;2022-08-11T14:19:14;32.50;20.30
42973;DHT22;28610;51.214;6.962;2022-08-11T14:22:02;32.70;20.50
42973;DHT22;28610;51.214;6.962;2022-08-11T14:24:51;32.80;20.80
42973;DHT22;28610;51.214;6.962;2022-08-11T14:27:37;32.50;20.60
42973;DHT22;28610;51.214;6.962;2022-08-11T14:30:26;32.50;20.40
42973;DHT22;28610;51.214;6.962;2022-08-11T14:33:31;32.10;20.10
42973;DHT22;28610;51.214;6.962;2022-08-11T14:36:18;32.30;20.50
42973;DHT22;28610;51.214;6.962;2022-08-11T14:39:07;32.00;20.90
42973;DHT22;28610;51.214;6.962;2022-08-11T14:41:57;32.00;21.50
42973;DHT22;28610;51.214;6.962;2022-08-11T14:45:03;32.00;20.60
42973;DHT22;28610;51.214;6.962;2022-08-11T14:48:13;32.00;20.80
42973;DHT22;28610;51.214;6.962;2022-08-11T14:50:59;32.10;21.30
42973;DHT22;28610;51.214;6.962;2022-08-11T14:53:44;32.10;20.90
42973;DHT22;28610;51.214;6.962;2022-08-11T14:56:30;32.00;20.70
42973;DHT22;28610;51.214;6.962;2022-08-11T14:59:20;32.10;20.40
42973;DHT22;28610;51.214;6.962;2022-08-11T15:02:06;32.10;20.80
42973;DHT22;28610;51.214;6.962;2022-08-11T15:05:11;32.20;21.10
42973;DHT22;28610;51.214;6.962;2022-08-11T15:07:57;32.10;21.10
42973;DHT22;28610;51.214;6.962;2022-08-11T15:10:44;32.30;21.00
42973;DHT22;28610;51.214;6.962;2022-08-11T15:13:29;32.30;21.50
42973;DHT22;28610;51.214;6.962;2022-08-11T15:16:16;32.10;21.70
42973;DHT22;28610;51.214;6.962;2022-08-11T15:19:19;32.20;21.80
42973;DHT22;28610;51.214;6.962;2022-08-11T15:22:06;32.10;21.40
42973;DHT22;28610;51.214;6.962;2022-08-11T15:25:10;32.20;21.90
42973;DHT22;28610;51.214;6.962;2022-08-11T15:27:55;32.20;21.60
42973;DHT22;28610;51.214;6.962;2022-08-11T15:31:01;32.00;21.60
42973;DHT22;28610;51.214;6.962;2022-08-11T15:34:23;32.00;21.30
42973;DHT22;28610;51.214;6.962;2022-08-11T15:37:29;31.90;21.60
42973;DHT22;28610;51.214;6.962;2022-08-11T15:40:23;31.80;21.40
42973;DHT22;28610;51.214;6.962;2022-08-11T15:43:28;31.70;21.20
42973;DHT22;28610;51.214;6.962;2022-08-11T15:46:39;31.60;21.70
42973;DHT22;28610;51.214;6.962;2022-08-11T15:49:30;31.70;21.30
42973;DHT22;28610;51.214;6.962;2022-08-11T15:52:20;31.80;21.80
42973;DHT22;28610;51.214;6.962;2022-08-11T15:55:09;31.70;21.50
42973;DHT22;28610;51.214;6.962;2022-08-11T15:57:57;31.70;21.80
42973;DHT22;28610;51.214;6.962;2022-08-11T16:01:02;31.60;21.60
42973;DHT22;28610;51.214;6.962;2022-08-11T16:04:09;31.70;22.00
42973;DHT22;28610;51.214;6.962;2022-08-11T16:07:00;31.60;21.80
42973;DHT22;28610;51.214;6.962;2022-08-11T16:09:50;31.30;21.40
42973;DHT22;28610;51.214;6.962;2022-08-11T16:12:40;31.40;21.70
42973;DHT22;28610;51.214;6.962;2022-08-11T16:15:48;31.30;21.50
42973;DHT22;28610;51.214;6.962;2022-08-11T16:18:53;31.30;21.60
42973;DHT22;28610;51.214;6.962;2022-08-11T16:21:40;31.20;21.60
42973;DHT22;28610;51.214;6.962;2022-08-11T16:24:27;31.30;22.10
42973;DHT22;28610;51.214;6.962;2022-08-11T16:27:15;31.20;21.60
42973;DHT22;28610;51.214;6.962;2022-08-11T16:30:05;31.20;21.90
42973;DHT22;28610;51.214;6.962;2022-08-11T16:32:52;31.20;21.80
42973;DHT22;28610;51.214;6.962;2022-08-11T16:35:39;31.10;22.30
42973;DHT22;28610;51.214;6.962;2022-08-11T16:38:42;30.90;21.90
42973;DHT22;28610;51.214;6.962;2022-08-11T16:41:30;30.90;22.60
42973;DHT22;28610;51.214;6.962;2022-08-11T16:44:35;30.70;22.30
42973;DHT22;28610;51.214;6.962;2022-08-11T16:47:42;30.60;22.20
42973;DHT22;28610;51.214;6.962;2022-08-11T16:50:28;30.60;22.50
42973;DHT22;28610;51.214;6.962;2022-08-11T16:53:14;30.60;22.60
42973;DHT22;28610;51.214;6.962;2022-08-11T16:56:02;30.50;22.60
42973;DHT22;28610;51.214;6.962;2022-08-11T16:58:52;30.40;22.50
42973;DHT22;28610;51.214;6.962;2022-08-11T17:01:59;30.40;22.60
42973;DHT22;28610;51.214;6.962;2022-08-11T17:04:50;30.30;22.70
42973;DHT22;28610;51.214;6.962;2022-08-11T17:07:55;30.30;22.80
42973;DHT22;28610;51.214;6.962;2022-08-11T17:11:01;30.10;22.90
42973;DHT22;28610;51.214;6.962;2022-08-11T17:14:23;30.00;23.20
42973;DHT22;28610;51.214;6.962;2022-08-11T17:17:12;30.00;23.10
42973;DHT22;28610;51.214;6.962;2022-08-11T17:20:03;29.90;23.00
42973;DHT22;28610;51.214;6.962;2022-08-11T17:22:51;29.90;23.20
42973;DHT22;28610;51.214;6.962;2022-08-11T17:25:55;29.80;23.20
42973;DHT22;28610;51.214;6.962;2022-08-11T17:28:42;29.80;23.50
42973;DHT22;28610;51.214;6.962;2022-08-11T17:31:29;29.70;23.30
42973;DHT22;28610;51.214;6.962;2022-08-11T17:34:32;29.70;23.60
42973;DHT22;28610;51.214;6.962;2022-08-11T17:37:37;29.60;23.60
42973;DHT22;28610;51.214;6.962;2022-08-11T17:40:24;29.60;24.00
42973;DHT22;28610;51.214;6.962;2022-08-11T17:43:10;29.50;23.50
42973;DHT22;28610;51.214;6.962;2022-08-11T17:46:14;29.50;23.50
42973;DHT22;28610;51.214;6.962;2022-08-11T17:49:15;29.40;23.70
42973;DHT22;28610;51.214;6.962;2022-08-11T17:52:04;29.30;23.70
42973;DHT22;28610;51.214;6.962;2022-08-11T17:55:10;29.20;23.60
42973;DHT22;28610;51.214;6.962;2022-08-11T17:58:22;29.10;23.80
42973;DHT22;28610;51.214;6.962;2022-08-11T18:01:27;29.10;23.90
42973;DHT22;28610;51.214;6.962;2022-08-11T18:04:18;29.00;24.30
42973;DHT22;28610;51.214;6.962;2022-08-11T18:07:05;28.90;24.20
42973;DHT22;28610;51.214;6.962;2022-08-11T18:10:11;28.90;24.40
42973;DHT22;28610;51.214;6.962;2022-08-11T18:13:15;28.80;24.50
42973;DHT22;28610;51.214;6.962;2022-08-11T18:16:19;28.80;24.60
42973;DHT22;28610;51.214;6.962;2022-08-11T18:19:23;28.70;24.90
42973;DHT22;28610;51.214;6.962;2022-08-11T18:22:30;28.60;24.90
42973;DHT22;28610;51.214;6.962;2022-08-11T18:25:39;28.50;24.90
42973;DHT22;28610;51.214;6.962;2022-08-11T18:28:46;28.40;25.10
42973;DHT22;28610;51.214;6.962;2022-08-11T18:31:53;28.30;25.20
42973;DHT22;28610;51.214;6.962;2022-08-11T18:34:57;28.30;25.40
42973;DHT22;28610;51.214;6.962;2022-08-11T18:38:02;28.20;25.60
42973;DHT22;28610;51.214;6.962;2022-08-11T18:41:09;28.10;25.80
42973;DHT22;28610;51.214;6.962;2022-08-11T18:44:14;28.00;26.00
42973;DHT22;28610;51.214;6.962;2022-08-11T18:47:19;27.90;25.90
42973;DHT22;28610;51.214;6.962;2022-08-11T18:50:24;27.90;26.10
42973;DHT22;28610;51.214;6.962;2022-08-11T18:53:28;27.70;26.30
42973;DHT22;28610;51.214;6.962;2022-08-11T18:56:33;27.70;26.50
42973;DHT22;28610;51.214;6.962;2022-08-11T18:59:39;27.60;26.60
42973;DHT22;28610;51.214;6.962;2022-08-11T19:02:44;27.50;26.70
42973;DHT22;28610;51.214;6.962;2022-08-11T19:05:48;27.50;26.90
42973;DHT22;28610;51.214;6.962;2022-08-11T19:08:53;27.40;27.00